sensor_id;sensor_type;location;lat;lon;timestamp;pressure;altitude;pressure_sealevel;temperature;humidity
40994;BME280;26722;43.212;27.932;2023-03-01T00:01:23;55236.44;;;-146.72;77.59
40994;BME280;26722;43.212;27.932;2023-03-01T00:03:50;55244.88;;;-146.72;77.25
40994;BME280;26722;43.212;27.932;2023-03-01T00:06:16;55228.00;;;-146.72;77.41
40994;BME280;26722;43.212;27.932;2023-03-01T00:08:42;55232.22;;;-146.72;76.81
40994;BME280;26722;43.212;27.932;2023-03-01T00:11:11;55240.66;;;-146.72;76.52
40994;BME280;26722;43.212;27.932;2023-03-01T00:13:38;55221.66;;;-146.72;76.51
40994;BME280;26722;43.212;27.932;2023-03-01T00:16:05;55247.00;;;-146.72;75.99
40994;BME280;26722;43.212;27.932;2023-03-01T00:18:31;55255.44;;;-146.72;76.24
40994;BME280;26722;43.212;27.932;2023-03-01T00:20:57;55238.53;;;-146.72;76.14
40994;BME280;26722;43.212;27.932;2023-03-01T00:23:23;55242.78;;;-146.72;75.82
40994;BME280;26722;43.212;27.932;2023-03-01T00:25:49;55257.56;;;-146.72;76.01
40994;BME280;26722;43.212;27.932;2023-03-01T00:28:15;55238.53;;;-146.72;76.29
40994;BME280;26722;43.212;27.932;2023-03-01T00:30:41;55263.88;;;-146.72;76.52
40994;BME280;26722;43.212;27.932;2023-03-01T00:33:06;55242.78;;;-146.72;76.47
40994;BME280;26722;43.212;27.932;2023-03-01T00:35:33;55249.09;;;-146.72;76.47
40994;BME280;26722;43.212;27.932;2023-03-01T00:37:58;55238.53;;;-146.72;76.63
40994;BME280;26722;43.212;27.932;2023-03-01T00:40:24;55244.88;;;-146.72;76.13
40994;BME280;26722;43.212;27.932;2023-03-01T00:42:50;55259.66;;;-146.72;76.07
40994;BME280;26722;43.212;27.932;2023-03-01T00:45:16;55255.44;;;-146.72;76.50
40994;BME280;26722;43.212;27.932;2023-03-01T00:47:41;55251.22;;;-146.72;75.99
40994;BME280;26722;43.212;27.932;2023-03-01T00:50:07;55255.44;;;-146.72;75.66
40994;BME280;26722;43.212;27.932;2023-03-01T00:52:33;55251.22;;;-146.72;75.73
40994;BME280;26722;43.212;27.932;2023-03-01T00:54:58;55263.88;;;-146.72;75.59
40994;BME280;26722;43.212;27.932;2023-03-01T00:57:24;55242.78;;;-146.72;75.42
40994;BME280;26722;43.212;27.932;2023-03-01T00:59:49;55257.56;;;-146.72;75.00
40994;BME280;26722;43.212;27.932;2023-03-01T01:02:15;55259.66;;;-146.72;75.16
40994;BME280;26722;43.212;27.932;2023-03-01T01:04:40;55259.66;;;-146.72;74.94
40994;BME280;26722;43.212;27.932;2023-03-01T01:07:06;55266.00;;;-146.72;74.81
40994;BME280;26722;43.212;27.932;2023-03-01T01:09:31;55255.44;;;-146.72;74.81
40994;BME280;26722;43.212;27.932;2023-03-01T01:11:57;55266.00;;;-146.72;75.00
40994;BME280;26722;43.212;27.932;2023-03-01T01:14:22;55251.22;;;-146.72;74.68
40994;BME280;26722;43.212;27.932;2023-03-01T01:16:48;55244.88;;;-146.72;74.78
40994;BME280;26722;43.212;27.932;2023-03-01T01:19:14;55289.22;;;-146.72;74.07
40994;BME280;26722;43.212;27.932;2023-03-01T01:21:40;55268.09;;;-146.72;73.92
40994;BME280;26722;43.212;27.932;2023-03-01T01:24:09;55263.88;;;-146.72;73.92
40994;BME280;26722;43.212;27.932;2023-03-01T01:26:34;55251.22;;;-146.72;73.94
40994;BME280;26722;43.212;27.932;2023-03-01T01:29:01;55268.09;;;-146.72;73.75
40994;BME280;26722;43.212;27.932;2023-03-01T01:31:27;55247.00;;;-146.72;74.06
40994;BME280;26722;43.212;27.932;2023-03-01T01:33:54;55255.44;;;-146.72;74.06
40994;BME280;26722;43.212;27.932;2023-03-01T01:36:20;55247.00;;;-146.72;74.23
40994;BME280;26722;43.212;27.932;2023-03-01T01:38:46;55249.09;;;-146.72;74.70
40994;BME280;26722;43.212;27.932;2023-03-01T01:41:13;55259.66;;;-146.72;74.83
40994;BME280;26722;43.212;27.932;2023-03-01T01:43:44;55247.00;;;-146.72;74.65
40994;BME280;26722;43.212;27.932;2023-03-01T01:46:19;55242.78;;;-146.72;75.06
40994;BME280;26722;43.212;27.932;2023-03-01T01:48:59;55263.88;;;-146.72;75.14
40994;BME280;26722;43.212;27.932;2023-03-01T01:51:29;55242.78;;;-146.72;74.94
40994;BME280;26722;43.212;27.932;2023-03-01T01:54:07;55247.00;;;-146.72;74.94
40994;BME280;26722;43.212;27.932;2023-03-01T01:56:37;55266.00;;;-146.72;75.22
40994;BME280;26722;43.212;27.932;2023-03-01T01:59:04;55242.78;;;-146.72;75.53
40994;BME280;26722;43.212;27.932;2023-03-01T02:01:30;55255.44;;;-146.72;75.66
40994;BME280;26722;43.212;27.932;2023-03-01T02:03:56;55261.78;;;-146.72;75.48
40994;BME280;26722;43.212;27.932;2023-03-01T02:06:31;55263.88;;;-146.72;75.31
40994;BME280;26722;43.212;27.932;2023-03-01T02:09:02;55242.78;;;-146.72;75.22
40994;BME280;26722;43.212;27.932;2023-03-01T02:11:31;55251.22;;;-146.72;75.37
40994;BME280;26722;43.212;27.932;2023-03-01T02:13:57;55266.00;;;-146.72;75.30
40994;BME280;26722;43.212;27.932;2023-03-01T02:16:23;55251.22;;;-146.72;75.06
40994;BME280;26722;43.212;27.932;2023-03-01T02:18:50;55255.44;;;-146.72;75.07
40994;BME280;26722;43.212;27.932;2023-03-01T02:23:56;55251.22;;;-146.72;74.51
40994;BME280;26722;43.212;27.932;2023-03-01T02:29:02;55251.22;;;-146.72;73.50
40994;BME280;26722;43.212;27.932;2023-03-01T02:31:28;55276.56;;;-146.72;73.21
40994;BME280;26722;43.212;27.932;2023-03-01T02:34:20;55242.78;;;-146.72;73.11
40994;BME280;26722;43.212;27.932;2023-03-01T02:36:53;55244.88;;;-146.72;72.89
40994;BME280;26722;43.212;27.932;2023-03-01T02:39:26;55247.00;;;-146.72;72.85
40994;BME280;26722;43.212;27.932;2023-03-01T02:41:54;55270.22;;;-146.72;72.99
40994;BME280;26722;43.212;27.932;2023-03-01T02:44:21;55238.53;;;-146.72;72.85
40994;BME280;26722;43.212;27.932;2023-03-01T02:46:50;55238.53;;;-146.72;72.40
40994;BME280;26722;43.212;27.932;2023-03-01T02:49:30;55259.66;;;-146.72;72.31
40994;BME280;26722;43.212;27.932;2023-03-01T02:57:10;55266.00;;;-146.72;71.85
40994;BME280;26722;43.212;27.932;2023-03-01T02:59:37;55228.00;;;-146.72;71.99
40994;BME280;26722;43.212;27.932;2023-03-01T03:02:29;55253.31;;;-146.72;72.05
40994;BME280;26722;43.212;27.932;2023-03-01T03:05:17;55238.53;;;-146.72;72.19
40994;BME280;26722;43.212;27.932;2023-03-01T03:07:45;55249.09;;;-146.72;72.18
40994;BME280;26722;43.212;27.932;2023-03-01T03:10:18;55240.66;;;-146.72;72.23
40994;BME280;26722;43.212;27.932;2023-03-01T03:12:49;55259.66;;;-146.72;72.59
40994;BME280;26722;43.212;27.932;2023-03-01T03:15:15;55247.00;;;-146.72;72.56
40994;BME280;26722;43.212;27.932;2023-03-01T03:17:41;55247.00;;;-146.72;72.61
40994;BME280;26722;43.212;27.932;2023-03-01T03:20:09;55263.88;;;-146.72;72.65
40994;BME280;26722;43.212;27.932;2023-03-01T03:22:38;55253.31;;;-146.72;73.11
40994;BME280;26722;43.212;27.932;2023-03-01T03:25:05;55251.22;;;-146.72;73.53
40994;BME280;26722;43.212;27.932;2023-03-01T03:27:30;55238.53;;;-146.72;73.10
40994;BME280;26722;43.212;27.932;2023-03-01T03:29:57;55253.31;;;-146.72;72.90
40994;BME280;26722;43.212;27.932;2023-03-01T03:32:22;55268.09;;;-146.72;72.58
40994;BME280;26722;43.212;27.932;2023-03-01T03:34:48;55236.44;;;-146.72;72.54
40994;BME280;26722;43.212;27.932;2023-03-01T03:37:14;55263.88;;;-146.72;72.26
40994;BME280;26722;43.212;27.932;2023-03-01T03:39:59;55247.00;;;-146.72;72.18
40994;BME280;26722;43.212;27.932;2023-03-01T03:42:25;55259.66;;;-146.72;72.03
40994;BME280;26722;43.212;27.932;2023-03-01T03:44:50;55253.31;;;-146.72;72.57
40994;BME280;26722;43.212;27.932;2023-03-01T03:47:15;55261.78;;;-146.72;72.13
40994;BME280;26722;43.212;27.932;2023-03-01T03:49:41;55242.78;;;-146.72;72.30
40994;BME280;26722;43.212;27.932;2023-03-01T03:52:06;55263.88;;;-146.72;72.67
40994;BME280;26722;43.212;27.932;2023-03-01T03:54:40;55249.09;;;-146.72;73.17
40994;BME280;26722;43.212;27.932;2023-03-01T03:57:05;55257.56;;;-146.72;73.22
40994;BME280;26722;43.212;27.932;2023-03-01T03:59:31;55261.78;;;-146.72;72.81
40994;BME280;26722;43.212;27.932;2023-03-01T04:01:57;55263.88;;;-146.72;72.78
40994;BME280;26722;43.212;27.932;2023-03-01T04:04:22;55280.78;;;-146.72;73.30
40994;BME280;26722;43.212;27.932;2023-03-01T04:06:47;55242.78;;;-146.72;73.21
40994;BME280;26722;43.212;27.932;2023-03-01T04:09:13;55234.31;;;-146.72;73.53
40994;BME280;26722;43.212;27.932;2023-03-01T04:11:39;55242.78;;;-146.72;73.47
40994;BME280;26722;43.212;27.932;2023-03-01T04:14:04;55244.88;;;-146.72;73.61
40994;BME280;26722;43.212;27.932;2023-03-01T04:16:30;55272.31;;;-146.72;73.63
40994;BME280;26722;43.212;27.932;2023-03-01T04:18:55;55255.44;;;-146.72;73.68
40994;BME280;26722;43.212;27.932;2023-03-01T04:21:21;55261.78;;;-146.72;74.04
40994;BME280;26722;43.212;27.932;2023-03-01T04:23:47;55244.88;;;-146.72;73.63
40994;BME280;26722;43.212;27.932;2023-03-01T04:26:13;55247.00;;;-146.72;73.59
40994;BME280;26722;43.212;27.932;2023-03-01T04:28:40;55255.44;;;-146.72;73.61
40994;BME280;26722;43.212;27.932;2023-03-01T04:31:14;55242.78;;;-146.72;73.15
40994;BME280;26722;43.212;27.932;2023-03-01T04:33:45;55234.31;;;-146.72;73.15
40994;BME280;26722;43.212;27.932;2023-03-01T04:36:12;55272.31;;;-146.72;73.42
40994;BME280;26722;43.212;27.932;2023-03-01T04:38:38;55234.31;;;-146.72;73.53
40994;BME280;26722;43.212;27.932;2023-03-01T04:41:09;55240.66;;;-146.72;73.63
40994;BME280;26722;43.212;27.932;2023-03-01T04:43:35;55251.22;;;-146.72;73.13
40994;BME280;26722;43.212;27.932;2023-03-01T04:46:08;55242.78;;;-146.72;72.93
40994;BME280;26722;43.212;27.932;2023-03-01T04:48:36;55263.88;;;-146.72;72.25
40994;BME280;26722;43.212;27.932;2023-03-01T04:51:03;55234.31;;;-146.72;72.26
40994;BME280;26722;43.212;27.932;2023-03-01T04:53:29;55259.66;;;-146.72;71.91
40994;BME280;26722;43.212;27.932;2023-03-01T04:55:55;55255.44;;;-146.72;71.87
40994;BME280;26722;43.212;27.932;2023-03-01T04:58:24;55242.78;;;-146.72;71.71
40994;BME280;26722;43.212;27.932;2023-03-01T05:00:50;55242.78;;;-146.72;71.16
40994;BME280;26722;43.212;27.932;2023-03-01T05:03:16;55244.88;;;-146.72;71.17
40994;BME280;26722;43.212;27.932;2023-03-01T05:05:46;55249.09;;;-146.72;71.25
40994;BME280;26722;43.212;27.932;2023-03-01T05:08:13;55236.44;;;-146.72;71.06
40994;BME280;26722;43.212;27.932;2023-03-01T05:10:52;55255.44;;;-146.72;71.17
40994;BME280;26722;43.212;27.932;2023-03-01T05:13:19;55253.31;;;-146.72;71.61
40994;BME280;26722;43.212;27.932;2023-03-01T05:16:00;55244.88;;;-146.72;70.84
40994;BME280;26722;43.212;27.932;2023-03-01T05:18:27;55249.09;;;-146.72;70.55
40994;BME280;26722;43.212;27.932;2023-03-01T05:20:54;55263.88;;;-146.72;70.42
40994;BME280;26722;43.212;27.932;2023-03-01T05:23:22;55257.56;;;-146.72;70.28
40994;BME280;26722;43.212;27.932;2023-03-01T05:25:47;55249.09;;;-146.72;70.33
40994;BME280;26722;43.212;27.932;2023-03-01T05:28:14;55234.31;;;-146.72;70.13
40994;BME280;26722;43.212;27.932;2023-03-01T05:30:40;55234.31;;;-146.72;69.98
40994;BME280;26722;43.212;27.932;2023-03-01T05:33:06;55247.00;;;-146.72;69.90
40994;BME280;26722;43.212;27.932;2023-03-01T05:35:41;55238.53;;;-146.72;70.13
40994;BME280;26722;43.212;27.932;2023-03-01T05:38:08;55251.22;;;-146.72;70.47
40994;BME280;26722;43.212;27.932;2023-03-01T05:40:34;55236.44;;;-146.72;70.30
40994;BME280;26722;43.212;27.932;2023-03-01T05:43:00;55228.00;;;-146.72;70.48
40994;BME280;26722;43.212;27.932;2023-03-01T05:45:27;55230.09;;;-146.72;70.12
40994;BME280;26722;43.212;27.932;2023-03-01T05:47:53;55228.00;;;-146.72;70.36
40994;BME280;26722;43.212;27.932;2023-03-01T05:50:25;55247.00;;;-146.72;70.50
40994;BME280;26722;43.212;27.932;2023-03-01T05:52:57;55236.44;;;-146.72;70.50
40994;BME280;26722;43.212;27.932;2023-03-01T05:55:23;55244.88;;;-146.72;70.67
40994;BME280;26722;43.212;27.932;2023-03-01T05:57:49;55253.31;;;-146.72;70.49
40994;BME280;26722;43.212;27.932;2023-03-01T06:00:17;55238.53;;;-146.72;70.37
40994;BME280;26722;43.212;27.932;2023-03-01T06:02:43;55249.09;;;-146.72;70.31
40994;BME280;26722;43.212;27.932;2023-03-01T06:05:10;55238.53;;;-146.72;69.58
40994;BME280;26722;43.212;27.932;2023-03-01T06:07:36;55236.44;;;-146.72;69.57
40994;BME280;26722;43.212;27.932;2023-03-01T06:10:03;55242.78;;;-146.72;69.21
40994;BME280;26722;43.212;27.932;2023-03-01T06:12:34;55244.88;;;-146.72;68.84
40994;BME280;26722;43.212;27.932;2023-03-01T06:15:00;55232.22;;;-146.72;68.89
40994;BME280;26722;43.212;27.932;2023-03-01T06:17:28;55219.53;;;-146.72;68.63
40994;BME280;26722;43.212;27.932;2023-03-01T06:19:54;55209.00;;;-146.72;69.07
40994;BME280;26722;43.212;27.932;2023-03-01T06:22:19;55230.09;;;-146.72;68.52
40994;BME280;26722;43.212;27.932;2023-03-01T06:24:44;55236.44;;;-146.72;68.69
40994;BME280;26722;43.212;27.932;2023-03-01T06:27:10;55230.09;;;-146.72;68.57
40994;BME280;26722;43.212;27.932;2023-03-01T06:29:35;55228.00;;;-146.72;68.78
40994;BME280;26722;43.212;27.932;2023-03-01T06:32:02;55238.53;;;-146.72;68.32
40994;BME280;26722;43.212;27.932;2023-03-01T06:34:28;55225.88;;;-146.72;68.03
40994;BME280;26722;43.212;27.932;2023-03-01T06:36:53;55247.00;;;-146.72;68.21
40994;BME280;26722;43.212;27.932;2023-03-01T06:39:19;55242.78;;;-146.72;68.55
40994;BME280;26722;43.212;27.932;2023-03-01T06:41:44;55249.09;;;-146.72;68.62
40994;BME280;26722;43.212;27.932;2023-03-01T06:44:10;55232.22;;;-146.72;68.49
40994;BME280;26722;43.212;27.932;2023-03-01T06:46:35;55234.31;;;-146.72;68.37
40994;BME280;26722;43.212;27.932;2023-03-01T06:49:01;55276.56;;;-146.72;68.43
40994;BME280;26722;43.212;27.932;2023-03-01T06:51:29;55230.09;;;-146.72;68.68
40994;BME280;26722;43.212;27.932;2023-03-01T06:53:55;55225.88;;;-146.72;68.78
40994;BME280;26722;43.212;27.932;2023-03-01T06:56:20;55247.00;;;-146.72;69.07
40994;BME280;26722;43.212;27.932;2023-03-01T06:58:46;55209.00;;;-146.72;69.09
40994;BME280;26722;43.212;27.932;2023-03-01T07:01:11;55242.78;;;-146.72;69.24
40994;BME280;26722;43.212;27.932;2023-03-01T07:03:36;55244.88;;;-146.72;69.35
40994;BME280;26722;43.212;27.932;2023-03-01T07:06:02;55251.22;;;-146.72;69.54
40994;BME280;26722;43.212;27.932;2023-03-01T07:08:27;55221.66;;;-146.72;69.64
40994;BME280;26722;43.212;27.932;2023-03-01T07:10:57;55261.78;;;-146.72;69.51
40994;BME280;26722;43.212;27.932;2023-03-01T07:13:23;55217.44;;;-146.72;69.10
40994;BME280;26722;43.212;27.932;2023-03-01T07:15:48;55206.88;;;-146.72;68.96
40994;BME280;26722;43.212;27.932;2023-03-01T07:18:14;55242.78;;;-146.72;68.48
40994;BME280;26722;43.212;27.932;2023-03-01T07:20:39;55234.31;;;-146.72;68.96
40994;BME280;26722;43.212;27.932;2023-03-01T07:23:05;55236.44;;;-146.72;69.13
40994;BME280;26722;43.212;27.932;2023-03-01T07:25:31;55242.78;;;-146.72;69.06
40994;BME280;26722;43.212;27.932;2023-03-01T07:27:57;55257.56;;;-146.72;69.30
40994;BME280;26722;43.212;27.932;2023-03-01T07:30:23;55219.53;;;-146.72;68.79
40994;BME280;26722;43.212;27.932;2023-03-01T07:32:51;55242.78;;;-146.72;68.91
40994;BME280;26722;43.212;27.932;2023-03-01T07:35:17;55200.53;;;-146.72;68.52
40994;BME280;26722;43.212;27.932;2023-03-01T07:37:43;55225.88;;;-146.72;68.91
40994;BME280;26722;43.212;27.932;2023-03-01T07:40:09;55215.31;;;-146.72;76.01
40994;BME280;26722;43.212;27.932;2023-03-01T07:42:35;55228.00;;;-146.72;69.07
40994;BME280;26722;43.212;27.932;2023-03-01T07:45:00;55185.75;;;-146.72;74.36
40994;BME280;26722;43.212;27.932;2023-03-01T07:47:26;55149.88;;;-146.72;75.65
40994;BME280;26722;43.212;27.932;2023-03-01T07:49:51;55113.97;;;-146.72;70.16
40994;BME280;26722;43.212;27.932;2023-03-01T07:52:16;55156.22;;;-146.72;60.16
40994;BME280;26722;43.212;27.932;2023-03-01T07:54:43;55162.53;;;-146.72;64.96
40994;BME280;26722;43.212;27.932;2023-03-01T07:57:10;55173.09;;;-146.72;65.56
40994;BME280;26722;43.212;27.932;2023-03-01T07:59:35;55166.75;;;-146.72;62.95
40994;BME280;26722;43.212;27.932;2023-03-01T08:02:00;55183.66;;;-146.72;65.93
40994;BME280;26722;43.212;27.932;2023-03-01T08:04:26;55154.09;;;-146.72;62.11
40994;BME280;26722;43.212;27.932;2023-03-01T08:06:52;55116.09;;;-146.72;64.92
40994;BME280;26722;43.212;27.932;2023-03-01T08:09:18;55122.44;;;-146.72;61.71
40994;BME280;26722;43.212;27.932;2023-03-01T08:11:44;55118.19;;;-146.72;60.70
40994;BME280;26722;43.212;27.932;2023-03-01T08:14:09;55097.09;;;-146.72;58.71
40994;BME280;26722;43.212;27.932;2023-03-01T08:16:36;55082.31;;;-146.72;60.04
40994;BME280;26722;43.212;27.932;2023-03-01T08:19:10;55139.31;;;-146.72;52.96
40994;BME280;26722;43.212;27.932;2023-03-01T08:21:36;55103.44;;;-146.72;64.45
40994;BME280;26722;43.212;27.932;2023-03-01T08:24:02;55092.88;;;-146.72;62.38
40994;BME280;26722;43.212;27.932;2023-03-01T08:26:28;55107.66;;;-146.72;51.35
40994;BME280;26722;43.212;27.932;2023-03-01T08:28:53;55124.53;;;-146.72;62.54
40994;BME280;26722;43.212;27.932;2023-03-01T08:31:26;55149.88;;;-146.72;55.70
40994;BME280;26722;43.212;27.932;2023-03-01T08:33:55;55122.44;;;-146.72;61.57
40994;BME280;26722;43.212;27.932;2023-03-01T08:36:23;55113.97;;;-146.72;63.29
40994;BME280;26722;43.212;27.932;2023-03-01T08:38:49;55097.09;;;-146.72;59.01
40994;BME280;26722;43.212;27.932;2023-03-01T08:41:14;55094.97;;;-146.72;59.14
40994;BME280;26722;43.212;27.932;2023-03-01T08:43:40;55094.97;;;-146.72;54.70
40994;BME280;26722;43.212;27.932;2023-03-01T08:46:06;55063.31;;;-146.72;58.33
40994;BME280;26722;43.212;27.932;2023-03-01T08:48:31;55084.44;;;-146.72;54.69
40994;BME280;26722;43.212;27.932;2023-03-01T08:50:57;55099.19;;;-146.72;53.81
40994;BME280;26722;43.212;27.932;2023-03-01T08:53:22;55056.97;;;-146.72;53.14
40994;BME280;26722;43.212;27.932;2023-03-01T08:55:48;55059.09;;;-146.72;51.10
40994;BME280;26722;43.212;27.932;2023-03-01T08:58:13;55061.19;;;-146.72;50.09
40994;BME280;26722;43.212;27.932;2023-03-01T09:00:39;55086.53;;;-146.72;53.42
40994;BME280;26722;43.212;27.932;2023-03-01T09:03:05;55086.53;;;-146.72;58.21
40994;BME280;26722;43.212;27.932;2023-03-01T09:05:32;55040.09;;;-146.72;55.00
40994;BME280;26722;43.212;27.932;2023-03-01T09:07:58;55075.97;;;-146.72;50.17
40994;BME280;26722;43.212;27.932;2023-03-01T09:10:23;55103.44;;;-146.72;49.44
40994;BME280;26722;43.212;27.932;2023-03-01T09:12:49;55116.09;;;-146.72;46.75
40994;BME280;26722;43.212;27.932;2023-03-01T09:15:14;55154.09;;;-146.72;48.79
40994;BME280;26722;43.212;27.932;2023-03-01T09:17:40;55149.88;;;-146.72;50.38
40994;BME280;26722;43.212;27.932;2023-03-01T09:20:05;55213.22;;;-146.72;54.16
40994;BME280;26722;43.212;27.932;2023-03-01T09:22:33;55225.88;;;-146.72;56.05
40994;BME280;26722;43.212;27.932;2023-03-01T09:24:59;55230.09;;;-146.72;57.84
40994;BME280;26722;43.212;27.932;2023-03-01T09:27:25;55249.09;;;-146.72;59.40
40994;BME280;26722;43.212;27.932;2023-03-01T09:29:50;55209.00;;;-146.72;59.95
40994;BME280;26722;43.212;27.932;2023-03-01T09:32:16;55225.88;;;-146.72;60.76
40994;BME280;26722;43.212;27.932;2023-03-01T09:34:41;55259.66;;;-146.72;61.20
40994;BME280;26722;43.212;27.932;2023-03-01T09:37:26;55217.44;;;-146.72;61.67
40994;BME280;26722;43.212;27.932;2023-03-01T09:39:52;55253.31;;;-146.72;62.20
40994;BME280;26722;43.212;27.932;2023-03-01T09:42:17;55234.31;;;-146.72;62.74
40994;BME280;26722;43.212;27.932;2023-03-01T09:44:47;55242.78;;;-146.72;62.67
40994;BME280;26722;43.212;27.932;2023-03-01T09:47:22;55230.09;;;-146.72;61.61
40994;BME280;26722;43.212;27.932;2023-03-01T09:52:52;55236.44;;;-146.72;61.49
40994;BME280;26722;43.212;27.932;2023-03-01T09:55:49;55225.88;;;-146.72;61.68
40994;BME280;26722;43.212;27.932;2023-03-01T10:04:23;55230.09;;;-146.72;61.10
40994;BME280;26722;43.212;27.932;2023-03-01T10:07:03;55242.78;;;-146.72;60.70
40994;BME280;26722;43.212;27.932;2023-03-01T10:09:37;55217.44;;;-146.72;60.45
40994;BME280;26722;43.212;27.932;2023-03-01T10:12:09;55240.66;;;-146.72;60.75
40994;BME280;26722;43.212;27.932;2023-03-01T10:15:19;55251.22;;;-146.72;60.97
40994;BME280;26722;43.212;27.932;2023-03-01T10:17:55;55238.53;;;-146.72;61.01
40994;BME280;26722;43.212;27.932;2023-03-01T10:20:24;55263.88;;;-146.72;61.77
40994;BME280;26722;43.212;27.932;2023-03-01T10:22:50;55261.78;;;-146.72;62.11
40994;BME280;26722;43.212;27.932;2023-03-01T10:25:36;55263.88;;;-146.72;61.67
40994;BME280;26722;43.212;27.932;2023-03-01T10:28:37;55255.44;;;-146.72;61.60
40994;BME280;26722;43.212;27.932;2023-03-01T10:30:58;55247.00;;;-146.72;60.75
40994;BME280;26722;43.212;27.932;2023-03-01T10:33:27;55242.78;;;-146.72;60.48
40994;BME280;26722;43.212;27.932;2023-03-01T10:35:54;55217.44;;;-146.72;60.49
40994;BME280;26722;43.212;27.932;2023-03-01T10:38:20;55221.66;;;-146.72;60.13
40994;BME280;26722;43.212;27.932;2023-03-01T10:43:16;55225.88;;;-146.72;59.30
40994;BME280;26722;43.212;27.932;2023-03-01T10:45:42;55211.09;;;-146.72;58.82
40994;BME280;26722;43.212;27.932;2023-03-01T10:48:11;55215.31;;;-146.72;59.74
40994;BME280;26722;43.212;27.932;2023-03-01T10:50:39;55219.53;;;-146.72;59.92
40994;BME280;26722;43.212;27.932;2023-03-01T10:55:47;55221.66;;;-146.72;59.30
40994;BME280;26722;43.212;27.932;2023-03-01T10:58:17;55225.88;;;-146.72;59.07
40994;BME280;26722;43.212;27.932;2023-03-01T11:01:00;55221.66;;;-146.72;59.08
40994;BME280;26722;43.212;27.932;2023-03-01T11:03:32;55213.22;;;-146.72;58.98
40994;BME280;26722;43.212;27.932;2023-03-01T11:05:59;55217.44;;;-146.72;59.43
40994;BME280;26722;43.212;27.932;2023-03-01T11:08:45;55209.00;;;-146.72;59.40
40994;BME280;26722;43.212;27.932;2023-03-01T11:11:25;55209.00;;;-146.72;58.84
40994;BME280;26722;43.212;27.932;2023-03-01T11:14:20;55223.78;;;-146.72;58.62
40994;BME280;26722;43.212;27.932;2023-03-01T11:16:49;55206.88;;;-146.72;59.19
40994;BME280;26722;43.212;27.932;2023-03-01T11:19:23;55232.22;;;-146.72;60.19
40994;BME280;26722;43.212;27.932;2023-03-01T11:24:32;55238.53;;;-146.72;60.15
40994;BME280;26722;43.212;27.932;2023-03-01T11:27:02;55234.31;;;-146.72;60.23
40994;BME280;26722;43.212;27.932;2023-03-01T11:29:41;55225.88;;;-146.72;60.76
40994;BME280;26722;43.212;27.932;2023-03-01T11:32:09;55223.78;;;-146.72;59.60
40994;BME280;26722;43.212;27.932;2023-03-01T11:34:43;55192.09;;;-146.72;59.22
40994;BME280;26722;43.212;27.932;2023-03-01T11:37:32;55196.31;;;-146.72;58.86
40994;BME280;26722;43.212;27.932;2023-03-01T11:40:22;55211.09;;;-146.72;58.00
40994;BME280;26722;43.212;27.932;2023-03-01T11:42:55;55221.66;;;-146.72;57.78
40994;BME280;26722;43.212;27.932;2023-03-01T11:45:27;55209.00;;;-146.72;57.71
40994;BME280;26722;43.212;27.932;2023-03-01T11:48:17;55213.22;;;-146.72;58.12
40994;BME280;26722;43.212;27.932;2023-03-01T11:50:51;55209.00;;;-146.72;58.01
40994;BME280;26722;43.212;27.932;2023-03-01T12:16:34;55219.53;;;-146.72;58.86
40994;BME280;26722;43.212;27.932;2023-03-01T12:22:31;55225.88;;;-146.72;59.24
40994;BME280;26722;43.212;27.932;2023-03-01T12:28:03;55225.88;;;-146.72;59.06
40994;BME280;26722;43.212;27.932;2023-03-01T12:30:46;55247.00;;;-146.72;59.75
40994;BME280;26722;43.212;27.932;2023-03-01T12:33:30;55225.88;;;-146.72;60.25
40994;BME280;26722;43.212;27.932;2023-03-01T12:36:15;55225.88;;;-146.72;60.40
40994;BME280;26722;43.212;27.932;2023-03-01T12:41:42;55242.78;;;-146.72;60.25
40994;BME280;26722;43.212;27.932;2023-03-01T12:50:10;55247.00;;;-146.72;59.44
40994;BME280;26722;43.212;27.932;2023-03-01T12:52:51;55225.88;;;-146.72;59.56
40994;BME280;26722;43.212;27.932;2023-03-01T13:11:19;55211.09;;;-146.72;57.91
40994;BME280;26722;43.212;27.932;2023-03-01T13:13:46;55215.31;;;-146.72;57.72
40994;BME280;26722;43.212;27.932;2023-03-01T13:21:43;55213.22;;;-146.72;57.17
40994;BME280;26722;43.212;27.932;2023-03-01T13:24:36;55204.75;;;-146.72;57.00
40994;BME280;26722;43.212;27.932;2023-03-01T13:29:55;55211.09;;;-146.72;57.04
40994;BME280;26722;43.212;27.932;2023-03-01T13:32:24;55217.44;;;-146.72;56.06
40994;BME280;26722;43.212;27.932;2023-03-01T13:34:55;55200.53;;;-146.72;56.23
40994;BME280;26722;43.212;27.932;2023-03-01T13:37:33;55223.78;;;-146.72;56.30
40994;BME280;26722;43.212;27.932;2023-03-01T13:40:01;55204.75;;;-146.72;56.72
40994;BME280;26722;43.212;27.932;2023-03-01T13:42:49;55204.75;;;-146.72;57.56
40994;BME280;26722;43.212;27.932;2023-03-01T13:47:45;55204.75;;;-146.72;57.30
40994;BME280;26722;43.212;27.932;2023-03-01T13:50:20;55192.09;;;-146.72;56.71
40994;BME280;26722;43.212;27.932;2023-03-01T13:52:51;55213.22;;;-146.72;56.32
40994;BME280;26722;43.212;27.932;2023-03-01T13:55:24;55211.09;;;-146.72;56.86
40994;BME280;26722;43.212;27.932;2023-03-01T13:57:54;55209.00;;;-146.72;57.32
40994;BME280;26722;43.212;27.932;2023-03-01T14:03:17;55211.09;;;-146.72;58.37
40994;BME280;26722;43.212;27.932;2023-03-01T14:05:58;55211.09;;;-146.72;56.61
40994;BME280;26722;43.212;27.932;2023-03-01T14:08:26;55196.31;;;-146.72;56.95
40994;BME280;26722;43.212;27.932;2023-03-01T14:19:18;55221.66;;;-146.72;57.53
40994;BME280;26722;43.212;27.932;2023-03-01T14:21:46;55236.44;;;-146.72;58.17
40994;BME280;26722;43.212;27.932;2023-03-01T14:24:21;55238.53;;;-146.72;58.48